You are listening to:
EPRZ Del/Twr/EPWW Radar - Jasionka, Poland

EPRZ 081930Z 36002KT CAVOK 23/18 Q1020

If stream doesn't start automatically press the play button
If stream stops then reload player then press play